Time;durP1;ratioP1;P1;durP2;ratioP2;P2;SDS_P1;SDS_P2;PMS_P1;PMS_P2;Temp;Humidity;BMP_temperature;BMP_pressure;BME280_temperature;BME280_humidity;BME280_pressure;Samples;Min_cycle;Max_cycle;Signal;HPM_P1;HPM_P2
2022/03/05 00:00:28;;;;;;;22.35;16.23;;;;;;;-1.40;100.00;100196.58;1745828;82;21064;-87
2022/03/05 00:03:14;;;;;;;22.87;16.77;;;;;;;-1.40;100.00;100201.69;1746746;82;21537;-86
2022/03/05 00:05:58;;;;;;;21.73;16.17;;;;;;;-1.41;100.00;100198.77;1745932;82;21036;-91
2022/03/05 00:08:44;;;;;;;20.95;15.13;;;;;;;-1.43;100.00;100201.35;1746343;82;21109;-87
2022/03/05 00:11:30;;;;;;;21.75;14.55;;;;;;;-1.43;100.00;100204.36;1746054;82;21080;-87
2022/03/05 00:14:15;;;;;;;21.85;15.63;;;;;;;-1.46;100.00;100196.36;1746561;82;21530;-86
2022/03/05 00:17:01;;;;;;;24.32;16.75;;;;;;;-1.47;100.00;100204.05;1746075;82;21593;-87
2022/03/05 00:19:47;;;;;;;21.82;16.65;;;;;;;-1.50;100.00;100201.16;1746349;82;21072;-88
2022/03/05 00:22:32;;;;;;;24.75;17.00;;;;;;;-1.52;100.00;100197.80;1745846;81;21071;-88
2022/03/05 00:25:21;;;;;;;21.30;15.65;;;;;;;-1.51;100.00;100203.77;1741589;81;21086;-88
2022/03/05 00:28:06;;;;;;;23.47;16.90;;;;;;;-1.51;100.00;100203.77;1743554;81;21048;-88
2022/03/05 00:30:54;;;;;;;22.13;14.75;;;;;;;-1.54;100.00;100200.02;1743577;82;21118;-87
2022/03/05 00:33:38;;;;;;;23.42;15.58;;;;;;;-1.54;100.00;100207.26;1743778;82;21229;-89
2022/03/05 00:36:24;;;;;;;21.80;15.08;;;;;;;-1.56;100.00;100205.64;1743840;81;21031;-90
2022/03/05 00:39:09;;;;;;;26.35;16.70;;;;;;;-1.56;100.00;100208.20;1728140;82;21518;-87
2022/03/05 00:41:54;;;;;;;24.85;16.85;;;;;;;-1.56;100.00;100205.64;1743957;82;21060;-86
2022/03/05 00:44:40;;;;;;;23.15;15.25;;;;;;;-1.60;100.00;100194.66;1743879;82;21033;-86
2022/03/05 00:47:25;;;;;;;23.10;16.35;;;;;;;-1.60;100.00;100205.73;1744082;82;21060;-85
2022/03/05 00:50:11;;;;;;;23.65;16.17;;;;;;;-1.61;100.00;100201.95;1744389;82;20997;-86
2022/03/05 00:52:59;;;;;;;21.97;15.80;;;;;;;-1.62;100.00;100201.09;1744330;82;21068;-86
2022/03/05 00:55:46;;;;;;;17.80;12.43;;;;;;;-1.62;100.00;100204.11;1743976;82;21032;-86
2022/03/05 00:58:31;;;;;;;26.55;18.15;;;;;;;-1.64;100.00;100199.02;1743974;82;21028;-88
2022/03/05 01:01:19;;;;;;;22.90;16.25;;;;;;;-1.66;100.00;100199.54;1743998;82;21095;-88
2022/03/05 01:03:55;;;;;;;22.15;15.48;;;;;;;-1.65;100.00;100200.36;1743735;82;21099;-87
2022/03/05 01:06:21;;;;;;;24.70;16.82;;;;;;;-1.66;100.00;100202.09;1744079;82;21016;-85
2022/03/05 01:08:48;;;;;;;24.60;17.25;;;;;;;-1.66;100.00;100192.30;1743686;82;21095;-86
2022/03/05 01:11:16;;;;;;;22.17;15.08;;;;;;;-1.66;100.00;100194.44;1744329;82;21047;-86
2022/03/05 01:13:44;;;;;;;24.20;17.02;;;;;;;-1.67;100.00;100209.78;1744010;82;21245;-87
2022/03/05 01:16:13;;;;;;;22.67;16.50;;;;;;;-1.67;100.00;100203.39;1744315;82;21036;-87
2022/03/05 01:18:40;;;;;;;23.70;16.62;;;;;;;-1.68;100.00;100203.85;1744110;82;21016;-86
2022/03/05 01:21:08;;;;;;;20.15;15.00;;;;;;;-1.69;100.00;100211.11;1744105;82;21130;-86
2022/03/05 01:23:35;;;;;;;23.57;16.40;;;;;;;-1.69;100.00;100205.19;1740042;82;21537;-88
2022/03/05 01:26:02;;;;;;;20.23;12.68;;;;;;;-1.69;100.00;100212.39;1724656;81;21149;-86
2022/03/05 01:28:29;;;;;;;25.27;17.50;;;;;;;-1.71;100.00;100209.04;1723734;81;21041;-87
2022/03/05 01:30:56;;;;;;;23.15;16.37;;;;;;;-1.71;100.00;100209.04;1725189;81;21521;-87
2022/03/05 01:33:23;;;;;;;23.12;15.83;;;;;;;-1.71;100.00;100217.97;1724900;81;21006;-87
2022/03/05 01:35:50;;;;;;;19.82;14.75;;;;;;;-1.71;100.00;100211.59;1722040;81;21527;-88
2022/03/05 01:38:18;;;;;;;21.42;15.30;;;;;;;-1.73;100.00;100218.48;1725608;81;21146;-87
2022/03/05 01:40:46;;;;;;;22.67;15.25;;;;;;;-1.72;100.00;100225.23;1725433;81;21978;-88
2022/03/05 01:43:13;;;;;;;25.70;17.30;;;;;;;-1.72;100.00;100225.23;1725341;81;21108;-88
2022/03/05 01:45:40;;;;;;;23.95;16.65;;;;;;;-1.72;100.00;100225.23;1725047;81;21036;-90
2022/03/05 01:48:07;;;;;;;22.75;16.00;;;;;;;-1.72;100.00;100228.24;1724906;82;21409;-88
2022/03/05 01:50:35;;;;;;;19.45;14.73;;;;;;;-1.72;100.00;100221.41;1724977;81;21883;-88
2022/03/05 01:53:02;;;;;;;22.07;15.80;;;;;;;-1.73;100.00;100226.14;1725378;81;21065;-92
2022/03/05 01:55:31;;;;;;;20.97;14.65;;;;;;;-1.74;100.00;100221.91;1725123;81;21076;-89
2022/03/05 01:57:58;;;;;;;22.37;16.30;;;;;;;-1.76;100.00;100235.98;1725050;81;21455;-86
2022/03/05 02:00:24;;;;;;;22.80;15.08;;;;;;;-1.78;100.00;100226.28;1725219;81;21553;-87
2022/03/05 02:02:52;;;;;;;20.65;14.85;;;;;;;-1.80;100.00;100226.76;1724496;81;21279;-86
2022/03/05 02:05:21;;;;;;;23.20;14.45;;;;;;;-1.79;100.00;100233.96;1685497;83;21531;-88
2022/03/05 02:07:51;;;;;;;23.75;16.10;;;;;;;-1.80;100.00;100232.29;1701835;82;21167;-88
2022/03/05 02:10:18;;;;;;;27.80;16.77;;;;;;;-1.82;100.00;100234.90;1730920;82;21045;-86
2022/03/05 02:12:45;;;;;;;19.42;13.90;;;;;;;-1.82;100.00;100232.80;1702269;82;21561;-86
2022/03/05 02:15:13;;;;;;;21.07;15.18;;;;;;;-1.82;100.00;100238.72;1698079;81;21333;-87
2022/03/05 02:17:40;;;;;;;24.27;15.90;;;;;;;-1.84;100.00;100239.20;1723598;81;21064;-87
2022/03/05 02:20:10;;;;;;;22.25;14.58;;;;;;;-1.85;100.00;100243.94;1724826;81;21593;-87
2022/03/05 02:22:37;;;;;;;21.68;14.55;;;;;;;-1.86;100.00;100242.27;1724423;81;21028;-86
2022/03/05 02:25:05;;;;;;;27.50;16.07;;;;;;;-1.85;100.00;100241.81;1737126;81;21005;-87
2022/03/05 02:27:32;;;;;;;24.47;16.07;;;;;;;-1.86;100.00;100245.23;1724182;82;21901;-88
2022/03/05 02:29:58;;;;;;;19.92;14.13;;;;;;;-1.88;100.00;100241.92;1743603;82;21520;-87
2022/03/05 02:32:26;;;;;;;20.62;14.40;;;;;;;-1.89;100.00;100239.80;1724091;82;21055;-87
2022/03/05 02:34:52;;;;;;;21.57;14.38;;;;;;;-1.91;100.00;100242.39;1743766;82;21048;-87
2022/03/05 02:37:22;;;;;;;22.73;14.98;;;;;;;-1.91;100.00;100244.09;1728991;82;21442;-87
2022/03/05 02:39:49;;;;;;;21.68;15.18;;;;;;;-1.93;100.00;100239.05;1743948;82;21308;-86
2022/03/05 02:42:17;;;;;;;21.15;15.10;;;;;;;-1.91;100.00;100245.38;1743646;82;21037;-89
2022/03/05 02:44:45;;;;;;;20.70;14.45;;;;;;;-1.91;100.00;100241.55;1739605;82;21178;-88
2022/03/05 02:47:12;;;;;;;19.75;13.58;;;;;;;-1.92;100.00;100243.70;1691183;84;21034;-88
2022/03/05 02:49:39;;;;;;;22.48;15.65;;;;;;;-1.92;100.00;100241.14;1744128;82;21084;-86
2022/03/05 02:52:07;;;;;;;20.55;13.32;;;;;;;-1.92;100.00;100245.83;1725400;81;21259;-87
2022/03/05 02:54:34;;;;;;;22.27;15.10;;;;;;;-1.94;100.00;100251.86;1750768;81;21294;-86
2022/03/05 02:57:01;;;;;;;20.08;14.18;;;;;;;-1.95;100.00;100245.91;1733406;81;21045;-86
2022/03/05 02:59:28;;;;;;;21.80;14.87;;;;;;;-1.96;100.00;100255.71;1752490;81;21125;-87
2022/03/05 03:01:56;;;;;;;23.05;14.80;;;;;;;-1.96;100.00;100259.55;1752728;81;21562;-86
2022/03/05 03:04:23;;;;;;;20.88;15.13;;;;;;;-1.97;100.00;100265.55;1737401;81;21337;-87
2022/03/05 03:06:50;;;;;;;21.15;15.08;;;;;;;-1.98;100.00;100260.05;1723025;81;21042;-86
2022/03/05 03:09:17;;;;;;;22.62;14.43;;;;;;;-1.98;100.00;100271.95;1731031;81;21009;-88
2022/03/05 03:11:47;;;;;;;19.82;14.80;;;;;;;-1.98;100.00;100266.43;1733805;82;21086;-90
2022/03/05 03:14:13;;;;;;;19.20;13.60;;;;;;;-1.97;100.00;100271.93;1728497;82;21141;-88
2022/03/05 03:16:42;;;;;;;20.95;14.58;;;;;;;-1.98;100.00;100273.23;1732645;82;21097;-87
2022/03/05 03:19:11;;;;;;;21.10;14.55;;;;;;;-1.99;100.00;100272.41;1733423;82;21046;-87
2022/03/05 03:21:39;;;;;;;20.25;14.33;;;;;;;-1.98;100.00;100279.61;1731662;82;21050;-90
2022/03/05 03:24:06;;;;;;;18.85;13.48;;;;;;;-1.97;100.00;100274.91;1720617;82;21082;-87
2022/03/05 03:26:49;;;;;;;19.70;14.00;;;;;;;-1.97;100.00;100280.02;1706695;82;21091;-88
2022/03/05 03:29:09;;;;;;;20.45;14.63;;;;;;;-1.99;100.00;100275.38;1708852;82;21406;-87
2022/03/05 03:31:38;;;;;;;20.45;14.10;;;;;;;-1.99;100.00;100283.89;1710407;82;21071;-87
2022/03/05 03:34:05;;;;;;;22.17;15.10;;;;;;;-1.98;100.00;100285.57;1706288;82;21036;-88
2022/03/05 03:36:34;;;;;;;19.67;13.93;;;;;;;-1.98;100.00;100280.47;1706925;82;21024;-89
2022/03/05 03:39:01;;;;;;;20.37;13.08;;;;;;;-1.99;100.00;100276.66;1706631;82;21580;-86
2022/03/05 03:41:28;;;;;;;19.77;12.98;;;;;;;-1.99;100.00;100289.00;1706606;82;21241;-88
2022/03/05 03:43:56;;;;;;;18.75;13.20;;;;;;;-2.02;100.00;100286.97;1706828;82;21008;-88
2022/03/05 03:46:23;;;;;;;17.62;12.50;;;;;;;-2.04;100.00;100286.99;1714116;82;21059;-87
2022/03/05 03:48:51;;;;;;;17.82;13.25;;;;;;;-2.06;100.00;100285.77;1713857;82;21083;-86
2022/03/05 03:51:18;;;;;;;19.70;12.65;;;;;;;-2.06;100.00;100289.59;1709424;82;21463;-90
2022/03/05 03:53:46;;;;;;;17.98;12.43;;;;;;;-2.07;100.00;100286.64;1702711;83;21362;-87
2022/03/05 03:56:14;;;;;;;17.98;12.33;;;;;;;-2.07;100.00;100289.20;1705627;82;21107;-89
2022/03/05 03:58:41;;;;;;;19.37;12.70;;;;;;;-2.08;100.00;100294.35;1707050;82;20989;-89
2022/03/05 04:01:08;;;;;;;17.55;13.10;;;;;;;-2.08;100.00;100293.08;1707328;82;21028;-90
2022/03/05 04:03:35;;;;;;;18.92;13.48;;;;;;;-2.09;100.00;100287.15;1706807;82;21012;-89
2022/03/05 04:06:02;;;;;;;19.48;13.55;;;;;;;-2.08;100.00;100291.80;1716188;82;21824;-88
2022/03/05 04:08:41;;;;;;;22.58;14.25;;;;;;;-2.08;100.00;100294.35;1691317;83;21093;-91
2022/03/05 04:11:14;;;;;;;19.55;13.78;;;;;;;-2.09;100.00;100296.50;1715917;82;21131;-87
2022/03/05 04:13:43;;;;;;;17.42;12.95;;;;;;;-2.09;100.00;100296.08;1707150;82;21067;-87
2022/03/05 04:16:10;;;;;;;20.75;13.78;;;;;;;-2.09;100.00;100295.23;1715809;82;21070;-89
2022/03/05 04:18:39;;;;;;;19.35;13.53;;;;;;;-2.09;100.00;100291.40;1715345;82;21155;-88
2022/03/05 04:21:08;;;;;;;17.52;12.13;;;;;;;-2.08;100.00;100295.63;1716222;82;21126;-87
2022/03/05 04:23:36;;;;;;;19.05;13.55;;;;;;;-2.10;100.00;100291.86;1704702;82;21408;-87
2022/03/05 04:26:03;;;;;;;20.05;13.08;;;;;;;-2.11;100.00;100293.15;1708925;81;21024;-88
2022/03/05 04:28:31;;;;;;;17.52;12.05;;;;;;;-2.13;100.00;100292.38;1729219;81;21059;-88
2022/03/05 04:30:58;;;;;;;18.70;12.45;;;;;;;-2.15;100.00;100296.68;1729595;81;21833;-88
2022/03/05 04:33:26;;;;;;;16.12;11.43;;;;;;;-2.16;100.00;100296.28;1721870;81;21030;-88
2022/03/05 04:35:53;;;;;;;20.72;13.78;;;;;;;-2.19;100.00;100308.69;1721222;81;21033;-87
2022/03/05 04:38:20;;;;;;;17.50;11.90;;;;;;;-2.19;100.00;100308.69;1702943;82;21091;-86
2022/03/05 04:40:50;;;;;;;19.00;12.93;;;;;;;-2.19;100.00;100303.58;1730609;82;21053;-88
2022/03/05 04:43:18;;;;;;;18.60;12.20;;;;;;;-2.18;100.00;100311.64;1731083;81;21235;-88
2022/03/05 04:45:45;;;;;;;18.35;12.28;;;;;;;-2.19;100.00;100314.20;1730836;81;21097;-89
2022/03/05 04:48:11;;;;;;;18.57;13.10;;;;;;;-2.18;100.00;100311.64;1730860;81;21041;-89
2022/03/05 04:50:38;;;;;;;17.40;12.43;;;;;;;-2.19;100.00;100315.48;1730430;81;21064;-89
2022/03/05 04:53:06;;;;;;;17.27;12.43;;;;;;;-2.20;100.00;100315.94;1728564;82;21065;-89
2022/03/05 04:55:32;;;;;;;17.52;11.93;;;;;;;-2.19;100.00;100321.44;1722757;81;21954;-89
2022/03/05 04:57:59;;;;;;;18.98;11.10;;;;;;;-2.19;100.00;100321.44;1729730;82;21719;-89
2022/03/05 05:00:26;;;;;;;17.50;12.18;;;;;;;-2.19;100.00;100323.14;1728832;81;21108;-87
2022/03/05 05:02:54;;;;;;;18.50;11.43;;;;;;;-2.18;100.00;100327.36;1729367;82;21080;-88
2022/03/05 05:05:22;;;;;;;19.87;11.70;;;;;;;-2.17;100.00;100334.14;1729988;82;21032;-88
2022/03/05 05:07:49;;;;;;;18.32;12.50;;;;;;;-2.17;100.00;100331.59;1730022;82;21279;-88
2022/03/05 05:10:16;;;;;;;19.10;13.08;;;;;;;-2.17;100.00;100337.97;1730072;81;21279;-87
2022/03/05 05:12:45;;;;;;;18.07;12.82;;;;;;;-2.16;100.00;100335.83;1705321;82;21029;-87
2022/03/05 05:15:12;;;;;;;17.75;11.55;;;;;;;-2.16;100.00;100337.92;1701605;82;21026;-87
2022/03/05 05:17:41;;;;;;;20.68;12.50;;;;;;;-2.16;100.00;100345.58;1701028;82;21025;-87
2022/03/05 05:20:10;;;;;;;17.48;11.55;;;;;;;-2.15;100.00;100345.16;1673190;82;21565;-88
2022/03/05 05:22:38;;;;;;;17.42;12.43;;;;;;;-2.13;100.00;100349.78;1701778;82;20950;-89
2022/03/05 05:25:07;;;;;;;19.17;12.25;;;;;;;-2.14;100.00;100351.48;1670114;83;21065;-88
2022/03/05 05:27:39;;;;;;;17.20;11.63;;;;;;;-2.12;100.00;100358.66;1685904;83;21097;-88
2022/03/05 05:30:08;;;;;;;16.87;12.33;;;;;;;-2.12;100.00;100359.09;1687447;83;21579;-86
2022/03/05 05:32:35;;;;;;;15.60;11.60;;;;;;;-2.12;100.00;100360.36;1686165;83;21570;-87
2022/03/05 05:35:03;;;;;;;18.55;11.75;;;;;;;-2.10;100.00;100363.72;1673753;84;21109;-88
2022/03/05 05:37:31;;;;;;;18.40;11.70;;;;;;;-2.10;100.00;100367.13;1699079;82;21026;-89
2022/03/05 05:40:00;;;;;;;14.55;9.90;;;;;;;-2.09;100.00;100369.22;1704801;82;21081;-87
2022/03/05 05:42:28;;;;;;;18.75;12.10;;;;;;;-2.08;100.00;100370.91;1703461;82;36598;-87
2022/03/05 05:44:55;;;;;;;18.45;11.40;;;;;;;-2.09;100.00;100376.45;1703063;82;21536;-89
2022/03/05 05:47:22;;;;;;;17.05;11.00;;;;;;;-2.08;100.00;100376.00;1701912;83;21041;-87
2022/03/05 05:49:50;;;;;;;17.07;12.03;;;;;;;-2.05;100.00;100377.21;1674702;83;21097;-87
2022/03/05 05:52:18;;;;;;;19.45;11.57;;;;;;;-2.03;100.00;100382.27;1686122;83;21104;-87
2022/03/05 05:54:45;;;;;;;19.67;11.28;;;;;;;-2.02;100.00;100382.67;1689658;82;21038;-87
2022/03/05 05:57:13;;;;;;;17.30;11.30;;;;;;;-2.02;100.00;100384.77;1723481;81;21216;-86
2022/03/05 05:59:40;;;;;;;16.60;11.60;;;;;;;-2.02;100.00;100386.05;1698916;82;21519;-87
2022/03/05 06:02:06;;;;;;;17.67;11.30;;;;;;;-2.02;100.00;100392.42;1726670;81;21828;-86
2022/03/05 06:04:33;;;;;;;17.42;10.30;;;;;;;-2.02;100.00;100389.87;1706650;82;21057;-83
2022/03/05 06:07:00;;;;;;;15.80;10.55;;;;;;;-2.01;100.00;100391.55;1701191;82;22149;-83
2022/03/05 06:09:28;;;;;;;18.70;11.43;;;;;;;-1.99;100.00;100405.53;1701296;82;21566;-82
2022/03/05 06:11:57;;;;;;;16.02;11.12;;;;;;;-1.99;100.00;100399.16;1701021;82;21092;-83
2022/03/05 06:14:23;;;;;;;17.10;10.50;;;;;;;-1.98;100.00;100404.24;1701403;82;21065;-82
2022/03/05 06:16:50;;;;;;;15.35;9.88;;;;;;;-1.97;100.00;100405.92;1701627;82;21554;-83
2022/03/05 06:19:18;;;;;;;15.03;9.78;;;;;;;-1.96;100.00;100411.84;1665055;84;21641;-83
2022/03/05 06:21:49;;;;;;;15.43;9.80;;;;;;;-1.97;100.00;100413.58;1705116;81;21525;-83
2022/03/05 06:24:19;;;;;;;16.87;10.78;;;;;;;-1.95;100.00;100410.98;1715289;82;21100;-84
2022/03/05 06:26:47;;;;;;;18.57;11.28;;;;;;;-1.95;100.00;100404.14;1667798;82;21064;-89
2022/03/05 06:29:17;;;;;;;14.87;9.78;;;;;;;-1.85;100.00;100407.73;1712308;81;21029;-87
2022/03/05 06:31:48;;;;;;;11.50;7.85;;;;;;;-1.78;100.00;100406.68;1713430;81;20975;-86
2022/03/05 06:34:15;;;;;;;14.90;9.90;;;;;;;-1.77;100.00;100412.19;1680835;83;21073;-87
2022/03/05 06:37:02;;;;;;;13.58;8.30;;;;;;;-1.78;100.00;100409.23;1710098;82;21065;-84
2022/03/05 06:39:28;;;;;;;17.00;10.60;;;;;;;-1.80;100.00;100405.88;1687862;82;21132;-88
2022/03/05 06:41:57;;;;;;;16.20;9.80;;;;;;;-1.83;100.00;100407.26;1711206;82;21032;-91
2022/03/05 06:44:24;;;;;;;15.45;8.78;;;;;;;-1.86;100.00;100411.16;1717187;81;21636;-87
2022/03/05 06:46:51;;;;;;;16.25;10.45;;;;;;;-1.88;100.00;100406.55;1709182;82;21193;-84
2022/03/05 06:49:18;;;;;;;16.48;9.75;;;;;;;-1.91;100.00;100407.02;1724143;81;21170;-85
2022/03/05 06:51:45;;;;;;;16.17;9.30;;;;;;;-1.89;100.00;100408.25;1700111;82;21119;-85
2022/03/05 06:54:11;;;;;;;14.43;9.95;;;;;;;-1.92;100.00;100413.00;1650898;84;21100;-87
2022/03/05 06:56:39;;;;;;;14.68;8.73;;;;;;;-1.93;100.00;100416.43;1719315;81;21073;-86
2022/03/05 06:59:06;;;;;;;15.40;10.38;;;;;;;-1.93;100.00;100413.87;1729796;81;21953;-85
2022/03/05 07:01:34;;;;;;;16.55;10.48;;;;;;;-1.92;100.00;100415.55;1700447;82;21021;-85
2022/03/05 07:04:01;;;;;;;15.28;9.10;;;;;;;-1.91;100.00;100420.20;1729914;82;21041;-82
2022/03/05 07:06:29;;;;;;;22.62;11.48;;;;;;;-1.88;100.00;100417.59;1699853;82;21628;-81
2022/03/05 07:08:57;;;;;;;15.98;10.78;;;;;;;-1.87;100.00;100419.27;1709326;82;21064;-82
2022/03/05 07:11:24;;;;;;;16.77;10.20;;;;;;;-1.84;100.00;100415.79;1698791;83;22207;-84
2022/03/05 07:13:55;;;;;;;18.30;10.18;;;;;;;-1.83;100.00;100420.02;1725390;81;21059;-83
2022/03/05 07:16:23;;;;;;;16.30;10.53;;;;;;;-1.80;100.00;100423.75;1721243;82;21622;-83
2022/03/05 07:18:50;;;;;;;14.35;9.75;;;;;;;-1.79;100.00;100415.22;1728728;82;21347;-83
2022/03/05 07:21:17;;;;;;;16.48;10.50;;;;;;;-1.78;100.00;100417.75;1729531;81;21534;-83
2022/03/05 07:23:45;;;;;;;18.90;11.30;;;;;;;-1.76;100.00;100415.14;1729659;82;21261;-84
2022/03/05 07:26:12;;;;;;;15.10;9.50;;;;;;;-1.73;100.00;100413.80;1726913;82;21021;-86
2022/03/05 07:28:38;;;;;;;15.48;10.45;;;;;;;-1.68;100.00;100421.33;1716671;81;21045;-84
2022/03/05 07:31:06;;;;;;;13.03;9.45;;;;;;;-1.65;100.00;100425.06;1686482;83;21125;-84
2022/03/05 07:33:32;;;;;;;13.32;9.15;;;;;;;-1.63;100.00;100419.03;1718988;82;21104;-83
2022/03/05 07:35:59;;;;;;;14.35;8.88;;;;;;;-1.61;100.00;100421.11;1719123;82;21373;-83
2022/03/05 07:38:26;;;;;;;13.18;8.78;;;;;;;-1.57;100.00;100426.14;1715233;82;22171;-83
2022/03/05 07:40:53;;;;;;;14.38;8.75;;;;;;;-1.54;100.00;100427.31;1720547;82;21062;-82
2022/03/05 07:43:20;;;;;;;12.93;8.70;;;;;;;-1.53;100.00;100431.55;1720318;82;21037;-84
2022/03/05 07:45:47;;;;;;;12.80;9.55;;;;;;;-1.50;100.00;100431.47;1718117;82;21649;-83
2022/03/05 07:48:14;;;;;;;12.88;9.43;;;;;;;-1.48;100.00;100432.24;1700133;83;21272;-83
2022/03/05 07:50:42;;;;;;;13.35;8.33;;;;;;;-1.45;100.00;100434.30;1719028;82;21041;-82
2022/03/05 07:53:09;;;;;;;13.08;8.28;;;;;;;-1.41;100.00;100437.60;1719537;82;21032;-83
2022/03/05 07:55:36;;;;;;;14.68;9.23;;;;;;;-1.39;100.00;100432.44;1718236;82;21036;-84
2022/03/05 07:58:04;;;;;;;14.05;8.78;;;;;;;-1.37;100.00;100431.97;1716611;83;21033;-84
2022/03/05 08:13:51;;;;;;;12.45;8.70;;;;;;;-1.02;100.00;100436.05;1834370;76;22124;-85
2022/03/05 08:16:19;;;;;;;12.95;7.80;;;;;;;-0.99;100.00;100438.95;1819664;77;21948;-85
2022/03/05 08:18:46;;;;;;;10.82;8.35;;;;;;;-0.99;100.00;100441.50;1803231;78;21135;-85
2022/03/05 08:21:13;;;;;;;12.18;8.38;;;;;;;-1.00;100.00;100444.94;1741655;82;21064;-85
2022/03/05 08:23:41;;;;;;;11.93;8.30;;;;;;;-1.06;100.00;100445.95;1744138;81;21098;-85
2022/03/05 08:26:13;;;;;;;13.40;9.08;;;;;;;-1.10;100.00;100445.66;1741595;81;21026;-84
2022/03/05 08:28:37;;;;;;;13.18;8.28;;;;;;;-1.12;100.00;100449.52;1760586;81;21521;-89
2022/03/05 08:31:03;;;;;;;13.62;8.55;;;;;;;-1.13;100.00;100449.58;1756985;81;21261;-88
2022/03/05 08:33:31;;;;;;;14.63;9.53;;;;;;;-1.16;100.00;100453.52;1759391;81;21050;-88
2022/03/05 08:35:58;;;;;;;13.10;8.75;;;;;;;-1.15;100.00;100455.16;1746575;81;21043;-88
2022/03/05 08:38:31;;;;;;;15.43;9.10;;;;;;;-1.14;100.00;100456.84;1795419;79;21046;-88
2022/03/05 08:40:59;;;;;;;14.98;9.10;;;;;;;-1.15;100.00;100456.44;1733694;81;21061;-85
2022/03/05 08:43:26;;;;;;;14.10;9.08;;;;;;;-1.18;100.00;100459.92;1777005;79;21093;-85
2022/03/05 08:45:53;;;;;;;14.47;9.13;;;;;;;-1.20;100.00;100461.68;1728296;81;21168;-85
2022/03/05 08:48:20;;;;;;;15.58;9.30;;;;;;;-1.18;100.00;100464.21;1750210;81;21049;-85
2022/03/05 08:50:47;;;;;;;15.20;9.30;;;;;;;-1.18;100.00;100465.48;1748921;81;21036;-86
2022/03/05 08:53:15;;;;;;;16.20;9.90;;;;;;;-1.14;100.00;100469.62;1755010;81;21033;-86
2022/03/05 08:55:45;;;;;;;15.00;9.70;;;;;;;-1.09;100.00;100474.59;1757641;81;21495;-85
2022/03/05 08:58:11;;;;;;;14.18;9.50;;;;;;;-1.07;100.00;100477.50;1754709;81;21021;-86
2022/03/05 09:00:38;;;;;;;14.43;9.98;;;;;;;-1.07;100.00;100480.52;1746556;81;21597;-87
2022/03/05 09:03:06;;;;;;;14.30;9.25;;;;;;;-1.08;100.00;100483.94;1749216;81;21061;-89
2022/03/05 09:05:40;;;;;;;13.08;8.73;;;;;;;-1.07;100.00;100487.72;1752019;81;21045;-83
2022/03/05 09:08:08;;;;;;;14.95;9.30;;;;;;;-1.06;100.00;100493.69;1758024;81;21519;-90
2022/03/05 09:10:36;;;;;;;13.25;9.90;;;;;;;-1.07;100.00;100488.18;1755750;81;21453;-91
2022/03/05 09:13:04;;;;;;;14.15;9.60;;;;;;;-1.07;100.00;100486.91;1742271;81;21495;-91
2022/03/05 09:15:33;;;;;;;15.18;9.43;;;;;;;-1.08;100.00;100489.88;1738351;81;21592;-88
2022/03/05 09:18:03;;;;;;;16.62;9.30;;;;;;;-1.05;100.00;100483.86;1746513;81;21872;-88
2022/03/05 09:20:30;;;;;;;12.50;9.20;;;;;;;-1.01;100.00;100486.72;1753723;81;21148;-87
2022/03/05 09:22:58;;;;;;;14.68;9.13;;;;;;;-0.99;100.00;100492.62;1751049;81;21147;-89
2022/03/05 09:25:25;;;;;;;14.00;8.75;;;;;;;-0.97;100.00;100496.81;1736768;81;21070;-87
2022/03/05 09:28:25;;;;;;;13.80;9.05;;;;;;;-0.94;100.00;100493.77;1738749;81;22188;-87
2022/03/05 09:30:53;;;;;;;16.02;9.65;;;;;;;-0.93;100.00;100500.11;1746017;81;21910;-84
2022/03/05 09:33:52;;;;;;;15.15;9.20;;;;;;;-0.90;100.00;100506.84;1761561;81;21965;-84
2022/03/05 09:43:31;;;;;;;14.63;10.43;;;;;;;-0.81;100.00;100510.42;1787625;78;21047;-89
2022/03/05 09:45:59;;;;;;;10.72;6.22;;;;;;;-0.80;100.00;100516.76;1797719;78;21078;-90
2022/03/05 09:48:31;;;;;;;17.35;10.93;;;;;;;-0.81;100.00;100512.55;1812786;78;21366;-94
2022/03/05 09:51:29;;;;;;;;;;;;;;;;;;;;;
2022/03/05 09:54:05;;;;;;;11.18;8.35;;;;;;;-0.91;100.00;100520.09;1749524;78;21117;-92
2022/03/05 09:56:37;;;;;;;14.18;9.93;;;;;;;-0.97;100.00;100515.98;1806923;78;21645;-88
2022/03/05 09:59:04;;;;;;;16.05;10.50;;;;;;;-0.98;100.00;100519.88;1802271;78;21084;-88
2022/03/05 10:01:32;;;;;;;14.03;10.10;;;;;;;-0.92;100.00;100511.19;1818841;78;21224;-87
2022/03/05 10:04:02;;;;;;;16.75;10.98;;;;;;;-0.88;100.00;100515.32;1818541;78;21069;-92
2022/03/05 10:06:29;;;;;;;16.07;10.90;;;;;;;-0.83;100.00;100519.42;1818288;78;21135;-88
2022/03/05 10:08:58;;;;;;;18.40;12.07;;;;;;;-0.77;100.00;100520.97;1782537;78;21029;-87
2022/03/05 10:14:18;;;;;;;14.35;10.10;;;;;;;-0.80;100.00;100522.33;1745082;78;21426;-88
2022/03/05 10:16:46;;;;;;;14.28;10.03;;;;;;;-0.80;100.00;100521.05;1798672;78;21067;-91
2022/03/05 10:19:21;;;;;;;15.60;11.40;;;;;;;-0.76;100.00;100531.56;1785847;78;21053;-91
2022/03/05 10:22:00;;;;;;;16.60;11.18;;;;;;;-0.77;100.00;100527.36;1810969;78;21121;-88
2022/03/05 10:24:36;;;;;;;13.28;8.35;;;;;;;-0.77;100.00;100531.20;1740554;80;21128;-93
2022/03/05 10:27:09;;;;;;;18.17;11.30;;;;;;;-0.76;100.00;100529.02;1765966;80;22569;-93
2022/03/05 10:29:39;;;;;;;17.52;12.40;;;;;;;-0.78;100.00;100532.08;1761757;80;21617;-93
2022/03/05 10:32:10;;;;;;;15.13;11.48;;;;;;;-0.72;100.00;100534.91;1745233;80;21022;-91
2022/03/05 10:34:50;;;;;;;14.28;9.50;;;;;;;-0.71;100.00;100539.11;1745965;82;21085;-93
2022/03/05 10:37:19;;;;;;;21.05;11.83;;;;;;;-0.72;100.00;100539.56;1761909;80;21575;-93
2022/03/05 10:39:49;;;;;;;17.62;11.88;;;;;;;-0.73;100.00;100537.88;1768571;80;21575;-92
2022/03/05 10:42:18;;;;;;;16.07;11.05;;;;;;;-0.69;100.00;100531.81;1743349;80;21059;-93
2022/03/05 10:45:03;;;;;;;16.55;10.95;;;;;;;-0.66;100.00;100544.94;1746470;80;21004;-92
2022/03/05 10:47:42;;;;;;;15.32;10.98;;;;;;;-0.72;100.00;100538.28;1742263;82;20985;-93
2022/03/05 10:50:22;;;;;;;15.28;10.80;;;;;;;-0.77;100.00;100535.45;1746014;82;21071;-93
2022/03/05 10:53:01;;;;;;;15.00;11.78;;;;;;;-0.74;100.00;100541.32;1724922;82;21336;-91
2022/03/05 10:55:37;;;;;;;14.03;10.58;;;;;;;-0.69;100.00;100540.77;1745734;81;21064;-91
2022/03/05 10:58:14;;;;;;;16.97;11.43;;;;;;;-0.66;100.00;100533.44;1754624;80;21105;-90
2022/03/05 11:00:42;;;;;;;15.70;10.82;;;;;;;-0.71;100.00;100537.83;1764395;80;21524;-91
2022/03/05 11:03:09;;;;;;;16.32;11.10;;;;;;;-0.72;100.00;100551.53;1745639;80;21022;-92
2022/03/05 11:05:38;;;;;;;13.83;9.48;;;;;;;-0.75;100.00;100544.75;1745542;82;21215;-91
2022/03/05 11:08:07;;;;;;;12.40;8.68;;;;;;;-0.75;100.00;100558.82;1739803;80;21097;-93
2022/03/05 11:10:34;;;;;;;15.32;10.75;;;;;;;-0.77;100.00;100555.91;1744259;81;21486;-93
2022/03/05 11:13:03;;;;;;;14.13;10.15;;;;;;;-0.81;100.00;100553.89;1750530;81;21556;-94
2022/03/05 11:15:32;;;;;;;13.98;11.18;;;;;;;-0.84;100.00;100552.27;1731764;81;21462;-92
2022/03/05 11:18:02;;;;;;;13.15;8.40;;;;;;;-0.79;100.00;100557.25;1715740;81;21319;-91
2022/03/05 11:20:29;;;;;;;16.00;10.60;;;;;;;-0.78;100.00;100562.77;1707753;83;21583;-92
2022/03/05 11:23:00;;;;;;;14.78;10.35;;;;;;;-0.79;100.00;100566.20;1707964;84;21272;-92
2022/03/05 11:25:31;;;;;;;13.90;8.98;;;;;;;-0.79;100.00;100559.80;1708004;82;21606;-93
2022/03/05 11:28:07;;;;;;;22.10;12.40;;;;;;;-0.77;100.00;100559.75;1708082;84;21527;-93
2022/03/05 11:30:44;;;;;;;15.48;11.28;;;;;;;-0.78;100.00;100562.77;1716054;82;21067;-92
2022/03/05 11:33:15;;;;;;;12.58;8.80;;;;;;;-0.76;100.00;100572.94;1680644;84;21086;-93
2022/03/05 11:35:43;;;;;;;10.93;7.80;;;;;;;-0.80;100.00;100566.63;1704349;83;21043;-91
2022/03/05 11:38:37;;;;;;;14.85;10.35;;;;;;;-0.79;100.00;100571.31;1737418;81;21574;-89
2022/03/05 11:41:12;;;;;;;12.05;8.83;;;;;;;-0.78;100.00;100569.58;1728333;81;21107;-92